sensor_id;sensor_type;location;lat;lon;timestamp;pressure;altitude;pressure_sealevel;temperature;humidity
64698;BME280;51124;53.394;-6.294;2023-09-19T00:01:02;99430.28;;;20.35;11.23
64698;BME280;51124;53.394;-6.294;2023-09-19T00:03:29;99427.86;;;20.23;11.27
64698;BME280;51124;53.394;-6.294;2023-09-19T00:05:57;99433.58;;;20.01;11.20
64698;BME280;51124;53.394;-6.294;2023-09-19T00:08:25;99428.60;;;20.60;11.16
64698;BME280;51124;53.394;-6.294;2023-09-19T00:10:52;99423.70;;;20.76;11.00
64698;BME280;51124;53.394;-6.294;2023-09-19T00:13:21;99422.43;;;20.75;11.11
64698;BME280;51124;53.394;-6.294;2023-09-19T00:15:49;99425.67;;;20.59;11.18
64698;BME280;51124;53.394;-6.294;2023-09-19T00:18:17;99420.44;;;20.63;11.26
64698;BME280;51124;53.394;-6.294;2023-09-19T00:20:45;99429.08;;;20.22;11.21
64698;BME280;51124;53.394;-6.294;2023-09-19T00:23:12;99425.04;;;20.46;11.29
64698;BME280;51124;53.394;-6.294;2023-09-19T00:25:39;99425.38;;;20.76;11.31
64698;BME280;51124;53.394;-6.294;2023-09-19T00:28:07;99421.67;;;20.38;11.20
64698;BME280;51124;53.394;-6.294;2023-09-19T00:30:34;99418.13;;;21.15;11.20
64698;BME280;51124;53.394;-6.294;2023-09-19T00:33:02;99417.05;;;20.55;11.32
64698;BME280;51124;53.394;-6.294;2023-09-19T00:35:29;99423.04;;;20.91;11.15
64698;BME280;51124;53.394;-6.294;2023-09-19T00:37:57;99422.70;;;19.94;11.24
64698;BME280;51124;53.394;-6.294;2023-09-19T00:40:24;99421.59;;;20.17;11.05
64698;BME280;51124;53.394;-6.294;2023-09-19T00:42:52;99422.45;;;20.23;11.12
64698;BME280;51124;53.394;-6.294;2023-09-19T00:45:23;99415.76;;;20.82;11.18
64698;BME280;51124;53.394;-6.294;2023-09-19T00:47:51;99416.10;;;22.35;11.26
64698;BME280;51124;53.394;-6.294;2023-09-19T00:50:21;99413.82;;;21.65;11.97
64698;BME280;51124;53.394;-6.294;2023-09-19T00:52:50;99415.35;;;21.29;11.94
64698;BME280;51124;53.394;-6.294;2023-09-19T00:55:20;99418.43;;;23.80;11.93
64698;BME280;51124;53.394;-6.294;2023-09-19T00:57:47;99416.36;;;23.24;12.57
64698;BME280;51124;53.394;-6.294;2023-09-19T01:00:15;99413.38;;;23.20;12.87
64698;BME280;51124;53.394;-6.294;2023-09-19T01:02:43;99416.37;;;22.58;13.42
64698;BME280;51124;53.394;-6.294;2023-09-19T01:05:12;99414.48;;;21.41;13.61
64698;BME280;51124;53.394;-6.294;2023-09-19T01:07:39;99408.17;;;22.90;13.36
64698;BME280;51124;53.394;-6.294;2023-09-19T01:10:08;99402.36;;;21.92;13.48
64698;BME280;51124;53.394;-6.294;2023-09-19T01:12:46;99398.95;;;22.49;13.60
64698;BME280;51124;53.394;-6.294;2023-09-19T01:15:11;99390.23;;;21.09;13.96
64698;BME280;51124;53.394;-6.294;2023-09-19T01:17:45;99387.01;;;22.32;13.76
64698;BME280;51124;53.394;-6.294;2023-09-19T01:20:23;99381.36;;;21.43;13.86
64698;BME280;51124;53.394;-6.294;2023-09-19T01:22:53;99368.77;;;22.90;13.70
64698;BME280;51124;53.394;-6.294;2023-09-19T01:25:34;99357.14;;;21.64;13.85
64698;BME280;51124;53.394;-6.294;2023-09-19T01:28:05;99348.84;;;22.94;13.60
64698;BME280;51124;53.394;-6.294;2023-09-19T01:30:17;99343.49;;;22.12;13.82
64698;BME280;51124;53.394;-6.294;2023-09-19T01:32:47;99340.81;;;22.21;13.73
64698;BME280;51124;53.394;-6.294;2023-09-19T01:35:14;99337.71;;;22.67;13.80
64698;BME280;51124;53.394;-6.294;2023-09-19T01:37:42;99326.40;;;22.78;13.80
64698;BME280;51124;53.394;-6.294;2023-09-19T01:40:11;99316.76;;;21.63;13.98
64698;BME280;51124;53.394;-6.294;2023-09-19T01:42:44;99310.50;;;22.53;13.77
64698;BME280;51124;53.394;-6.294;2023-09-19T01:45:16;99302.60;;;22.18;14.13
64698;BME280;51124;53.394;-6.294;2023-09-19T01:47:51;99299.56;;;21.58;13.74
64698;BME280;51124;53.394;-6.294;2023-09-19T01:50:22;99295.59;;;21.52;13.61
64698;BME280;51124;53.394;-6.294;2023-09-19T01:52:50;99284.72;;;20.17;13.28
64698;BME280;51124;53.394;-6.294;2023-09-19T01:55:11;99272.86;;;19.59;12.82
64698;BME280;51124;53.394;-6.294;2023-09-19T01:57:43;99259.13;;;20.00;12.47
64698;BME280;51124;53.394;-6.294;2023-09-19T02:00:07;99255.02;;;20.23;12.26
64698;BME280;51124;53.394;-6.294;2023-09-19T02:02:38;99248.24;;;19.53;12.17
64698;BME280;51124;53.394;-6.294;2023-09-19T02:05:07;99240.80;;;19.61;11.94
64698;BME280;51124;53.394;-6.294;2023-09-19T02:07:34;99233.52;;;21.13;11.66
64698;BME280;51124;53.394;-6.294;2023-09-19T02:10:02;99226.07;;;20.30;11.48
64698;BME280;51124;53.394;-6.294;2023-09-19T02:12:29;99219.11;;;20.08;11.58
64698;BME280;51124;53.394;-6.294;2023-09-19T02:14:56;99219.79;;;20.33;11.60
64698;BME280;51124;53.394;-6.294;2023-09-19T02:17:24;99217.14;;;20.56;11.61
64698;BME280;51124;53.394;-6.294;2023-09-19T02:19:51;99211.00;;;20.11;11.47
64698;BME280;51124;53.394;-6.294;2023-09-19T02:22:18;99206.31;;;20.11;11.47
64698;BME280;51124;53.394;-6.294;2023-09-19T02:24:45;99197.32;;;19.75;11.51
64698;BME280;51124;53.394;-6.294;2023-09-19T02:27:13;99186.02;;;20.04;11.32
64698;BME280;51124;53.394;-6.294;2023-09-19T02:29:41;99171.41;;;19.71;11.45
64698;BME280;51124;53.394;-6.294;2023-09-19T02:32:08;99161.25;;;20.34;11.50
64698;BME280;51124;53.394;-6.294;2023-09-19T02:34:36;99146.16;;;19.99;11.51
64698;BME280;51124;53.394;-6.294;2023-09-19T02:37:03;99144.09;;;20.13;11.37
64698;BME280;51124;53.394;-6.294;2023-09-19T02:39:30;99135.82;;;20.07;11.22
64698;BME280;51124;53.394;-6.294;2023-09-19T02:41:58;99126.65;;;19.84;11.52
64698;BME280;51124;53.394;-6.294;2023-09-19T02:44:25;99118.22;;;20.07;11.24
64698;BME280;51124;53.394;-6.294;2023-09-19T02:46:52;99109.84;;;20.18;11.23
64698;BME280;51124;53.394;-6.294;2023-09-19T02:49:19;99096.35;;;20.21;11.21
64698;BME280;51124;53.394;-6.294;2023-09-19T02:51:47;99089.53;;;19.97;11.29
64698;BME280;51124;53.394;-6.294;2023-09-19T02:54:14;99077.25;;;19.22;11.22
64698;BME280;51124;53.394;-6.294;2023-09-19T02:56:41;99066.77;;;19.67;11.32
64698;BME280;51124;53.394;-6.294;2023-09-19T02:59:08;99058.87;;;19.74;11.54
64698;BME280;51124;53.394;-6.294;2023-09-19T03:01:36;99043.37;;;20.73;11.17
64698;BME280;51124;53.394;-6.294;2023-09-19T03:04:03;99032.50;;;20.15;11.27
64698;BME280;51124;53.394;-6.294;2023-09-19T03:06:30;99024.71;;;20.15;11.30
64698;BME280;51124;53.394;-6.294;2023-09-19T03:08:58;99008.32;;;19.93;11.26
64698;BME280;51124;53.394;-6.294;2023-09-19T03:11:25;98999.40;;;20.53;11.11
64698;BME280;51124;53.394;-6.294;2023-09-19T03:13:53;98988.48;;;19.64;11.27
64698;BME280;51124;53.394;-6.294;2023-09-19T03:16:20;98979.18;;;19.77;11.35
64698;BME280;51124;53.394;-6.294;2023-09-19T03:18:48;98971.86;;;19.82;11.38
64698;BME280;51124;53.394;-6.294;2023-09-19T03:21:15;98966.21;;;19.97;11.34
64698;BME280;51124;53.394;-6.294;2023-09-19T03:23:43;98953.38;;;20.89;11.53
64698;BME280;51124;53.394;-6.294;2023-09-19T03:26:10;98947.40;;;19.70;11.76
64698;BME280;51124;53.394;-6.294;2023-09-19T03:28:38;98935.12;;;19.58;11.48
64698;BME280;51124;53.394;-6.294;2023-09-19T03:31:06;98917.76;;;19.68;11.57
64698;BME280;51124;53.394;-6.294;2023-09-19T03:33:34;98903.19;;;20.05;11.32
64698;BME280;51124;53.394;-6.294;2023-09-19T03:36:01;98891.49;;;19.02;11.66
64698;BME280;51124;53.394;-6.294;2023-09-19T03:38:29;98876.66;;;19.54;11.29
64698;BME280;51124;53.394;-6.294;2023-09-19T03:40:56;98864.22;;;20.24;11.27
64698;BME280;51124;53.394;-6.294;2023-09-19T03:43:24;98849.61;;;20.01;11.33
64698;BME280;51124;53.394;-6.294;2023-09-19T03:45:51;98839.87;;;20.28;11.38
64698;BME280;51124;53.394;-6.294;2023-09-19T03:48:18;98834.66;;;21.94;11.69
64698;BME280;51124;53.394;-6.294;2023-09-19T03:50:45;98827.69;;;19.85;12.23
64698;BME280;51124;53.394;-6.294;2023-09-19T03:53:13;98820.22;;;19.62;12.15
64698;BME280;51124;53.394;-6.294;2023-09-19T03:55:40;98812.37;;;22.36;12.47
64698;BME280;51124;53.394;-6.294;2023-09-19T03:58:07;98805.07;;;22.84;12.88
64698;BME280;51124;53.394;-6.294;2023-09-19T04:00:35;98800.12;;;21.65;13.54
64698;BME280;51124;53.394;-6.294;2023-09-19T04:03:03;98789.56;;;22.10;13.42
64698;BME280;51124;53.394;-6.294;2023-09-19T04:05:30;98781.15;;;21.12;13.70
64698;BME280;51124;53.394;-6.294;2023-09-19T04:07:57;98771.37;;;21.84;13.44
64698;BME280;51124;53.394;-6.294;2023-09-19T04:10:25;98759.07;;;21.94;13.85
64698;BME280;51124;53.394;-6.294;2023-09-19T04:12:53;98747.46;;;22.20;13.71
64698;BME280;51124;53.394;-6.294;2023-09-19T04:15:20;98737.87;;;21.80;13.67
64698;BME280;51124;53.394;-6.294;2023-09-19T04:17:48;98732.35;;;21.66;13.71
64698;BME280;51124;53.394;-6.294;2023-09-19T04:20:16;98727.59;;;21.80;13.99
64698;BME280;51124;53.394;-6.294;2023-09-19T04:22:44;98719.26;;;21.88;14.01
64698;BME280;51124;53.394;-6.294;2023-09-19T04:25:11;98698.08;;;20.99;14.00
64698;BME280;51124;53.394;-6.294;2023-09-19T04:27:38;98682.31;;;21.31;13.95
64698;BME280;51124;53.394;-6.294;2023-09-19T04:30:07;98685.41;;;19.90;14.16
64698;BME280;51124;53.394;-6.294;2023-09-19T04:32:35;98672.58;;;21.81;14.05
64698;BME280;51124;53.394;-6.294;2023-09-19T04:35:02;98663.06;;;20.78;14.00
64698;BME280;51124;53.394;-6.294;2023-09-19T04:37:30;98667.30;;;21.91;13.69
64698;BME280;51124;53.394;-6.294;2023-09-19T04:39:57;98651.20;;;20.45;14.07
64698;BME280;51124;53.394;-6.294;2023-09-19T04:42:24;98646.47;;;22.05;13.79
64698;BME280;51124;53.394;-6.294;2023-09-19T04:44:52;98631.94;;;22.23;13.90
64698;BME280;51124;53.394;-6.294;2023-09-19T04:47:19;98624.85;;;20.41;13.79
64698;BME280;51124;53.394;-6.294;2023-09-19T04:49:46;98612.39;;;20.12;13.57
64698;BME280;51124;53.394;-6.294;2023-09-19T04:52:14;98611.35;;;19.23;13.14
64698;BME280;51124;53.394;-6.294;2023-09-19T04:54:41;98606.86;;;19.92;12.67
64698;BME280;51124;53.394;-6.294;2023-09-19T04:57:08;98609.27;;;19.63;12.37
64698;BME280;51124;53.394;-6.294;2023-09-19T04:59:35;98607.96;;;19.07;12.18
64698;BME280;51124;53.394;-6.294;2023-09-19T05:02:02;98599.72;;;19.49;12.07
64698;BME280;51124;53.394;-6.294;2023-09-19T05:04:29;98597.92;;;19.54;11.69
64698;BME280;51124;53.394;-6.294;2023-09-19T05:06:57;98593.17;;;19.50;11.74
64698;BME280;51124;53.394;-6.294;2023-09-19T05:09:24;98589.55;;;19.65;11.70
64698;BME280;51124;53.394;-6.294;2023-09-19T05:11:51;98577.36;;;20.00;11.42
64698;BME280;51124;53.394;-6.294;2023-09-19T05:14:18;98584.82;;;19.74;11.64
64698;BME280;51124;53.394;-6.294;2023-09-19T05:16:45;98579.64;;;19.95;11.36
64698;BME280;51124;53.394;-6.294;2023-09-19T05:19:12;98589.58;;;20.06;11.58
64698;BME280;51124;53.394;-6.294;2023-09-19T05:21:40;98566.73;;;19.27;11.46
64698;BME280;51124;53.394;-6.294;2023-09-19T05:24:07;98568.45;;;19.04;11.54
64698;BME280;51124;53.394;-6.294;2023-09-19T05:26:34;98548.94;;;19.46;11.34
64698;BME280;51124;53.394;-6.294;2023-09-19T05:29:02;98561.97;;;19.28;11.34
64698;BME280;51124;53.394;-6.294;2023-09-19T05:31:29;98561.35;;;20.12;11.20
64698;BME280;51124;53.394;-6.294;2023-09-19T05:33:56;98555.17;;;19.66;11.24
64698;BME280;51124;53.394;-6.294;2023-09-19T05:36:24;98561.53;;;19.71;11.17
64698;BME280;51124;53.394;-6.294;2023-09-19T05:38:51;98553.15;;;19.41;11.25
64698;BME280;51124;53.394;-6.294;2023-09-19T05:41:18;98561.90;;;19.23;11.30
64698;BME280;51124;53.394;-6.294;2023-09-19T05:43:45;98550.96;;;18.91;11.46
64698;BME280;51124;53.394;-6.294;2023-09-19T05:46:13;98550.14;;;19.75;11.31
64698;BME280;51124;53.394;-6.294;2023-09-19T05:48:40;98550.63;;;19.81;11.20
64698;BME280;51124;53.394;-6.294;2023-09-19T05:51:07;98538.64;;;19.24;11.16
64698;BME280;51124;53.394;-6.294;2023-09-19T05:53:34;98513.92;;;19.54;11.12
64698;BME280;51124;53.394;-6.294;2023-09-19T05:56:01;98515.52;;;19.91;11.15
64698;BME280;51124;53.394;-6.294;2023-09-19T05:58:29;98518.24;;;19.74;11.16
64698;BME280;51124;53.394;-6.294;2023-09-19T06:00:56;98525.08;;;19.42;11.39
64698;BME280;51124;53.394;-6.294;2023-09-19T06:03:23;98518.37;;;20.32;11.10
64698;BME280;51124;53.394;-6.294;2023-09-19T06:05:50;98527.49;;;19.51;11.45
64698;BME280;51124;53.394;-6.294;2023-09-19T06:08:18;98538.16;;;19.54;11.27
64698;BME280;51124;53.394;-6.294;2023-09-19T06:10:45;98535.00;;;20.00;11.15
64698;BME280;51124;53.394;-6.294;2023-09-19T06:13:13;98545.83;;;20.10;11.01
64698;BME280;51124;53.394;-6.294;2023-09-19T06:15:40;98530.54;;;19.63;11.19
64698;BME280;51124;53.394;-6.294;2023-09-19T06:18:12;98520.70;;;20.17;11.10
64698;BME280;51124;53.394;-6.294;2023-09-19T06:20:39;98527.76;;;19.69;11.20
64698;BME280;51124;53.394;-6.294;2023-09-19T06:23:07;98523.34;;;20.25;10.97
64698;BME280;51124;53.394;-6.294;2023-09-19T06:25:34;98510.03;;;21.00;10.70
64698;BME280;51124;53.394;-6.294;2023-09-19T06:28:01;98511.33;;;19.91;11.15
64698;BME280;51124;53.394;-6.294;2023-09-19T06:30:29;98520.95;;;20.83;11.27
64698;BME280;51124;53.394;-6.294;2023-09-19T06:32:58;98514.24;;;19.62;11.52
64698;BME280;51124;53.394;-6.294;2023-09-19T06:35:26;98519.29;;;19.46;11.41
64698;BME280;51124;53.394;-6.294;2023-09-19T06:37:53;98524.05;;;19.70;11.42
64698;BME280;51124;53.394;-6.294;2023-09-19T06:40:21;98514.04;;;19.54;11.30
64698;BME280;51124;53.394;-6.294;2023-09-19T06:42:50;98513.72;;;19.74;11.32
64698;BME280;51124;53.394;-6.294;2023-09-19T06:45:18;98513.83;;;19.60;11.34
64698;BME280;51124;53.394;-6.294;2023-09-19T06:47:45;98513.92;;;22.44;11.45
64698;BME280;51124;53.394;-6.294;2023-09-19T06:50:13;98523.62;;;22.21;11.81
64698;BME280;51124;53.394;-6.294;2023-09-19T06:52:40;98521.00;;;20.10;11.95
64698;BME280;51124;53.394;-6.294;2023-09-19T06:55:08;98521.34;;;23.49;12.05
64698;BME280;51124;53.394;-6.294;2023-09-19T06:57:35;98527.87;;;22.26;13.08
64698;BME280;51124;53.394;-6.294;2023-09-19T07:00:03;98524.69;;;23.15;13.31
64698;BME280;51124;53.394;-6.294;2023-09-19T07:02:31;98536.75;;;22.86;13.35
64698;BME280;51124;53.394;-6.294;2023-09-19T07:04:58;98546.79;;;22.38;13.48
64698;BME280;51124;53.394;-6.294;2023-09-19T07:07:25;98543.50;;;22.82;13.74
64698;BME280;51124;53.394;-6.294;2023-09-19T07:09:53;98539.46;;;21.86;13.77
64698;BME280;51124;53.394;-6.294;2023-09-19T07:12:20;98559.83;;;21.98;13.75
64698;BME280;51124;53.394;-6.294;2023-09-19T07:14:47;98540.20;;;21.53;13.81
64698;BME280;51124;53.394;-6.294;2023-09-19T07:17:15;98560.73;;;21.88;14.05
64698;BME280;51124;53.394;-6.294;2023-09-19T07:19:43;98555.53;;;21.71;13.94
64698;BME280;51124;53.394;-6.294;2023-09-19T07:22:10;98558.54;;;22.21;13.92
64698;BME280;51124;53.394;-6.294;2023-09-19T07:24:37;98551.63;;;21.56;14.08
64698;BME280;51124;53.394;-6.294;2023-09-19T07:27:05;98568.75;;;22.77;14.07
64698;BME280;51124;53.394;-6.294;2023-09-19T07:29:32;98567.33;;;21.84;14.08
64698;BME280;51124;53.394;-6.294;2023-09-19T07:32:00;98580.59;;;21.56;14.29
64698;BME280;51124;53.394;-6.294;2023-09-19T07:34:27;98588.38;;;22.78;14.06
64698;BME280;51124;53.394;-6.294;2023-09-19T07:36:55;98581.40;;;21.86;14.23
64698;BME280;51124;53.394;-6.294;2023-09-19T07:39:23;98578.61;;;22.35;14.13
64698;BME280;51124;53.394;-6.294;2023-09-19T07:41:50;98581.19;;;21.88;14.13
64698;BME280;51124;53.394;-6.294;2023-09-19T07:44:17;98582.96;;;21.70;14.33
64698;BME280;51124;53.394;-6.294;2023-09-19T07:46:45;98593.07;;;21.52;13.99
64698;BME280;51124;53.394;-6.294;2023-09-19T07:49:12;98593.89;;;21.68;13.78
64698;BME280;51124;53.394;-6.294;2023-09-19T07:51:39;98605.40;;;20.63;13.46
64698;BME280;51124;53.394;-6.294;2023-09-19T07:54:07;98593.87;;;19.79;13.24
64698;BME280;51124;53.394;-6.294;2023-09-19T07:56:34;98606.30;;;20.43;12.75
64698;BME280;51124;53.394;-6.294;2023-09-19T07:59:02;98611.99;;;21.02;12.54
64698;BME280;51124;53.394;-6.294;2023-09-19T08:01:29;98613.82;;;20.51;12.36
64698;BME280;51124;53.394;-6.294;2023-09-19T08:03:56;98614.53;;;20.53;12.23
64698;BME280;51124;53.394;-6.294;2023-09-19T08:06:23;98610.02;;;20.25;11.96
64698;BME280;51124;53.394;-6.294;2023-09-19T08:08:52;98611.46;;;20.08;11.48
64698;BME280;51124;53.394;-6.294;2023-09-19T08:11:19;98615.63;;;20.04;11.53
64698;BME280;51124;53.394;-6.294;2023-09-19T08:13:47;98615.50;;;20.67;11.31
64698;BME280;51124;53.394;-6.294;2023-09-19T08:16:14;98613.32;;;21.11;11.39
64698;BME280;51124;53.394;-6.294;2023-09-19T08:18:42;98609.16;;;20.41;11.49
64698;BME280;51124;53.394;-6.294;2023-09-19T08:21:11;98604.53;;;20.86;11.65
64698;BME280;51124;53.394;-6.294;2023-09-19T08:23:38;98604.25;;;20.57;11.58
64698;BME280;51124;53.394;-6.294;2023-09-19T08:26:05;98605.52;;;20.00;11.54
64698;BME280;51124;53.394;-6.294;2023-09-19T08:28:33;98606.28;;;20.21;11.51
64698;BME280;51124;53.394;-6.294;2023-09-19T08:31:03;98612.46;;;20.11;11.56
64698;BME280;51124;53.394;-6.294;2023-09-19T08:33:31;98615.64;;;19.95;11.64
64698;BME280;51124;53.394;-6.294;2023-09-19T08:35:58;98610.88;;;20.45;11.61
64698;BME280;51124;53.394;-6.294;2023-09-19T08:38:25;98608.12;;;19.91;11.61
64698;BME280;51124;53.394;-6.294;2023-09-19T08:40:53;98608.30;;;20.55;11.53
64698;BME280;51124;53.394;-6.294;2023-09-19T08:43:23;98609.79;;;20.98;11.49
64698;BME280;51124;53.394;-6.294;2023-09-19T08:45:50;98608.10;;;20.04;11.62
64698;BME280;51124;53.394;-6.294;2023-09-19T08:48:23;98608.96;;;20.32;11.53
64698;BME280;51124;53.394;-6.294;2023-09-19T08:50:52;98612.23;;;20.70;11.36
64698;BME280;51124;53.394;-6.294;2023-09-19T08:53:26;98624.76;;;19.80;11.70
64698;BME280;51124;53.394;-6.294;2023-09-19T08:55:54;98622.94;;;20.70;11.45
64698;BME280;51124;53.394;-6.294;2023-09-19T08:58:25;98629.41;;;20.55;11.48
64698;BME280;51124;53.394;-6.294;2023-09-19T09:00:54;98639.56;;;20.80;11.43
64698;BME280;51124;53.394;-6.294;2023-09-19T09:03:22;98644.13;;;20.93;11.40
64698;BME280;51124;53.394;-6.294;2023-09-19T09:05:50;98643.35;;;20.54;11.46
64698;BME280;51124;53.394;-6.294;2023-09-19T09:08:18;98654.81;;;20.65;11.41
64698;BME280;51124;53.394;-6.294;2023-09-19T09:10:46;98660.50;;;20.33;11.47
64698;BME280;51124;53.394;-6.294;2023-09-19T09:13:14;98670.16;;;20.02;11.73
64698;BME280;51124;53.394;-6.294;2023-09-19T09:15:43;98665.85;;;19.47;11.52
64698;BME280;51124;53.394;-6.294;2023-09-19T09:18:10;98668.54;;;20.91;11.44
64698;BME280;51124;53.394;-6.294;2023-09-19T09:20:37;98666.24;;;19.77;11.70
64698;BME280;51124;53.394;-6.294;2023-09-19T09:23:04;98672.87;;;21.27;11.52
64698;BME280;51124;53.394;-6.294;2023-09-19T09:26:04;98681.64;;;19.98;11.59
64698;BME280;51124;53.394;-6.294;2023-09-19T09:28:01;98679.68;;;20.88;11.63
64698;BME280;51124;53.394;-6.294;2023-09-19T09:30:35;98680.57;;;21.07;11.38
64698;BME280;51124;53.394;-6.294;2023-09-19T09:33:11;98683.38;;;20.89;11.42
64698;BME280;51124;53.394;-6.294;2023-09-19T09:35:28;98684.67;;;20.66;11.45
64698;BME280;51124;53.394;-6.294;2023-09-19T09:38:01;98679.10;;;21.12;10.89
64698;BME280;51124;53.394;-6.294;2023-09-19T09:40:45;98671.32;;;21.52;10.89
64698;BME280;51124;53.394;-6.294;2023-09-19T09:43:02;98673.57;;;20.68;11.03
64698;BME280;51124;53.394;-6.294;2023-09-19T09:45:30;98667.30;;;21.11;10.72
64698;BME280;51124;53.394;-6.294;2023-09-19T09:47:57;98684.95;;;23.05;10.87
64698;BME280;51124;53.394;-6.294;2023-09-19T09:50:28;98684.90;;;22.80;11.43
64698;BME280;51124;53.394;-6.294;2023-09-19T09:52:55;98678.63;;;21.50;11.61
64698;BME280;51124;53.394;-6.294;2023-09-19T09:55:23;98686.67;;;20.74;11.54
64698;BME280;51124;53.394;-6.294;2023-09-19T09:58:02;98690.50;;;23.62;11.98
64698;BME280;51124;53.394;-6.294;2023-09-19T10:00:22;98695.16;;;23.53;12.75
64698;BME280;51124;53.394;-6.294;2023-09-19T10:02:49;98694.03;;;23.14;12.92
64698;BME280;51124;53.394;-6.294;2023-09-19T10:05:18;98701.77;;;22.90;13.08
64698;BME280;51124;53.394;-6.294;2023-09-19T10:07:46;98702.58;;;23.02;13.39
64698;BME280;51124;53.394;-6.294;2023-09-19T10:10:14;98703.73;;;22.87;13.51
64698;BME280;51124;53.394;-6.294;2023-09-19T10:12:44;98707.57;;;22.89;13.41
64698;BME280;51124;53.394;-6.294;2023-09-19T10:15:14;98706.76;;;22.95;13.56
64698;BME280;51124;53.394;-6.294;2023-09-19T10:17:43;98707.37;;;22.79;13.40
64698;BME280;51124;53.394;-6.294;2023-09-19T10:20:14;98715.49;;;23.38;13.57
64698;BME280;51124;53.394;-6.294;2023-09-19T10:22:42;98715.26;;;22.87;13.42
64698;BME280;51124;53.394;-6.294;2023-09-19T10:25:10;98718.35;;;22.36;13.47
64698;BME280;51124;53.394;-6.294;2023-09-19T10:27:38;98727.68;;;21.88;13.60
64698;BME280;51124;53.394;-6.294;2023-09-19T10:30:08;98721.82;;;22.82;13.59
64698;BME280;51124;53.394;-6.294;2023-09-19T10:32:41;98726.58;;;22.35;13.70
64698;BME280;51124;53.394;-6.294;2023-09-19T10:35:09;98720.25;;;22.60;13.76
64698;BME280;51124;53.394;-6.294;2023-09-19T10:37:38;98717.99;;;21.73;13.70
64698;BME280;51124;53.394;-6.294;2023-09-19T10:40:08;98718.91;;;22.81;13.67
64698;BME280;51124;53.394;-6.294;2023-09-19T10:42:39;98722.99;;;21.49;13.70
64698;BME280;51124;53.394;-6.294;2023-09-19T10:45:09;98721.53;;;22.95;13.78
64698;BME280;51124;53.394;-6.294;2023-09-19T10:47:36;98719.51;;;20.83;13.83
64698;BME280;51124;53.394;-6.294;2023-09-19T10:50:05;98722.33;;;22.13;13.49
64698;BME280;51124;53.394;-6.294;2023-09-19T10:52:33;98723.56;;;20.78;13.39
64698;BME280;51124;53.394;-6.294;2023-09-19T10:55:05;98730.04;;;20.32;12.92
64698;BME280;51124;53.394;-6.294;2023-09-19T10:57:33;98724.00;;;19.48;12.49
64698;BME280;51124;53.394;-6.294;2023-09-19T11:00:05;98730.43;;;20.83;12.14
64698;BME280;51124;53.394;-6.294;2023-09-19T11:02:32;98733.25;;;20.68;12.24
64698;BME280;51124;53.394;-6.294;2023-09-19T11:05:12;98730.44;;;20.40;11.94
64698;BME280;51124;53.394;-6.294;2023-09-19T11:07:30;98728.49;;;20.60;11.73
64698;BME280;51124;53.394;-6.294;2023-09-19T11:09:57;98728.40;;;21.10;11.60
64698;BME280;51124;53.394;-6.294;2023-09-19T11:12:57;98728.39;;;20.43;11.56
64698;BME280;51124;53.394;-6.294;2023-09-19T11:14:53;98724.35;;;20.42;11.50
64698;BME280;51124;53.394;-6.294;2023-09-19T11:17:33;98725.82;;;21.64;11.46
64698;BME280;51124;53.394;-6.294;2023-09-19T11:20:20;98723.36;;;21.02;11.44
64698;BME280;51124;53.394;-6.294;2023-09-19T11:22:17;98726.37;;;21.36;11.45
64698;BME280;51124;53.394;-6.294;2023-09-19T11:24:44;98720.57;;;20.58;11.43
64698;BME280;51124;53.394;-6.294;2023-09-19T11:27:14;98715.40;;;21.05;11.30
64698;BME280;51124;53.394;-6.294;2023-09-19T11:29:41;98724.45;;;20.13;11.30
64698;BME280;51124;53.394;-6.294;2023-09-19T11:32:09;98721.74;;;21.01;11.25
64698;BME280;51124;53.394;-6.294;2023-09-19T11:34:43;98711.36;;;21.05;11.07
64698;BME280;51124;53.394;-6.294;2023-09-19T11:39:01;98716.70;;;20.68;11.03
64698;BME280;51124;53.394;-6.294;2023-09-19T11:41:38;98720.61;;;20.48;11.09
64698;BME280;51124;53.394;-6.294;2023-09-19T11:43:33;98721.73;;;21.11;10.91
64698;BME280;51124;53.394;-6.294;2023-09-19T11:46:07;98715.00;;;20.91;10.79
64698;BME280;51124;53.394;-6.294;2023-09-19T11:48:25;98711.32;;;21.05;10.68
64698;BME280;51124;53.394;-6.294;2023-09-19T11:50:54;98718.74;;;21.32;10.80
64698;BME280;51124;53.394;-6.294;2023-09-19T11:53:23;98707.38;;;21.20;10.73
64698;BME280;51124;53.394;-6.294;2023-09-19T11:55:51;98704.68;;;21.25;10.86
64698;BME280;51124;53.394;-6.294;2023-09-19T11:58:19;98702.84;;;21.15;10.81
64698;BME280;51124;53.394;-6.294;2023-09-19T12:00:47;98703.50;;;21.03;10.90
64698;BME280;51124;53.394;-6.294;2023-09-19T12:03:21;98688.14;;;21.21;10.84
64698;BME280;51124;53.394;-6.294;2023-09-19T12:05:49;98693.77;;;21.26;10.85
64698;BME280;51124;53.394;-6.294;2023-09-19T12:08:17;98685.17;;;21.42;10.71
64698;BME280;51124;53.394;-6.294;2023-09-19T12:10:48;98683.24;;;21.30;10.79
64698;BME280;51124;53.394;-6.294;2023-09-19T12:13:18;98686.13;;;20.98;10.79
64698;BME280;51124;53.394;-6.294;2023-09-19T12:15:45;98683.37;;;20.95;10.84
64698;BME280;51124;53.394;-6.294;2023-09-19T12:18:28;98682.09;;;21.05;10.79
64698;BME280;51124;53.394;-6.294;2023-09-19T12:20:45;98689.01;;;21.56;10.75
64698;BME280;51124;53.394;-6.294;2023-09-19T12:23:14;98689.63;;;21.59;10.72
64698;BME280;51124;53.394;-6.294;2023-09-19T12:25:43;98691.89;;;21.66;10.75
64698;BME280;51124;53.394;-6.294;2023-09-19T12:28:11;98696.76;;;21.66;10.89
64698;BME280;51124;53.394;-6.294;2023-09-19T12:30:38;98695.71;;;21.04;10.94
64698;BME280;51124;53.394;-6.294;2023-09-19T12:33:13;98696.38;;;21.51;10.74
64698;BME280;51124;53.394;-6.294;2023-09-19T12:35:41;98695.17;;;21.12;10.77
64698;BME280;51124;53.394;-6.294;2023-09-19T12:38:08;98703.02;;;21.03;10.87
64698;BME280;51124;53.394;-6.294;2023-09-19T12:40:35;98717.30;;;20.34;10.88
64698;BME280;51124;53.394;-6.294;2023-09-19T12:43:03;98711.20;;;21.30;10.79
64698;BME280;51124;53.394;-6.294;2023-09-19T12:45:31;98720.04;;;20.06;10.89
64698;BME280;51124;53.394;-6.294;2023-09-19T12:48:31;98719.22;;;21.15;10.71
64698;BME280;51124;53.394;-6.294;2023-09-19T12:50:27;98724.68;;;23.67;10.91
64698;BME280;51124;53.394;-6.294;2023-09-19T12:52:56;98729.43;;;23.49;11.27
64698;BME280;51124;53.394;-6.294;2023-09-19T12:55:26;98731.33;;;21.37;11.60